sensor_id;sensor_type;location;lat;lon;timestamp;P1;durP1;ratioP1;P2;durP2;ratioP2
53108;SDS011;39007;53.090;6.074;2023-02-23T00:02:00;98.43;;;55.50;;
53108;SDS011;39007;53.090;6.074;2023-02-23T00:04:33;94.40;;;54.67;;
53108;SDS011;39007;53.090;6.074;2023-02-23T00:06:59;97.40;;;56.60;;
53108;SDS011;39007;53.090;6.074;2023-02-23T00:09:25;90.38;;;53.55;;
53108;SDS011;39007;53.090;6.074;2023-02-23T00:11:59;89.25;;;52.38;;
53108;SDS011;39007;53.090;6.074;2023-02-23T00:14:31;95.00;;;54.08;;
53108;SDS011;39007;53.090;6.074;2023-02-23T00:16:58;87.82;;;53.55;;
53108;SDS011;39007;53.090;6.074;2023-02-23T00:19:24;83.40;;;51.15;;
53108;SDS011;39007;53.090;6.074;2023-02-23T00:21:50;86.88;;;51.80;;
53108;SDS011;39007;53.090;6.074;2023-02-23T00:24:16;86.13;;;50.70;;
53108;SDS011;39007;53.090;6.074;2023-02-23T00:26:44;89.43;;;52.13;;
53108;SDS011;39007;53.090;6.074;2023-02-23T00:29:15;88.45;;;53.08;;
53108;SDS011;39007;53.090;6.074;2023-02-23T00:31:42;91.13;;;53.97;;
53108;SDS011;39007;53.090;6.074;2023-02-23T00:34:09;95.90;;;54.13;;
53108;SDS011;39007;53.090;6.074;2023-02-23T00:36:35;94.85;;;52.63;;
53108;SDS011;39007;53.090;6.074;2023-02-23T00:39:04;86.00;;;51.88;;
53108;SDS011;39007;53.090;6.074;2023-02-23T00:41:35;93.35;;;53.90;;
53108;SDS011;39007;53.090;6.074;2023-02-23T00:44:01;95.63;;;53.28;;
53108;SDS011;39007;53.090;6.074;2023-02-23T00:46:28;97.97;;;53.13;;
53108;SDS011;39007;53.090;6.074;2023-02-23T00:48:56;88.88;;;51.15;;
53108;SDS011;39007;53.090;6.074;2023-02-23T00:51:23;98.95;;;53.58;;
53108;SDS011;39007;53.090;6.074;2023-02-23T00:53:55;93.25;;;52.53;;
53108;SDS011;39007;53.090;6.074;2023-02-23T00:56:21;90.53;;;51.20;;
53108;SDS011;39007;53.090;6.074;2023-02-23T00:58:47;99.40;;;53.75;;
53108;SDS011;39007;53.090;6.074;2023-02-23T01:01:13;93.55;;;53.40;;
53108;SDS011;39007;53.090;6.074;2023-02-23T01:03:40;95.38;;;53.97;;
53108;SDS011;39007;53.090;6.074;2023-02-23T01:06:07;97.75;;;52.90;;
53108;SDS011;39007;53.090;6.074;2023-02-23T01:08:34;94.75;;;52.63;;
53108;SDS011;39007;53.090;6.074;2023-02-23T01:11:08;99.97;;;52.53;;
53108;SDS011;39007;53.090;6.074;2023-02-23T01:13:35;100.57;;;52.10;;
53108;SDS011;39007;53.090;6.074;2023-02-23T01:16:07;106.38;;;54.75;;
53108;SDS011;39007;53.090;6.074;2023-02-23T01:18:34;95.57;;;52.28;;
53108;SDS011;39007;53.090;6.074;2023-02-23T01:21:01;107.28;;;54.60;;
53108;SDS011;39007;53.090;6.074;2023-02-23T01:23:27;106.63;;;54.42;;
53108;SDS011;39007;53.090;6.074;2023-02-23T01:25:53;109.07;;;54.60;;
53108;SDS011;39007;53.090;6.074;2023-02-23T01:28:19;114.80;;;55.70;;
53108;SDS011;39007;53.090;6.074;2023-02-23T01:30:45;104.70;;;55.53;;
53108;SDS011;39007;53.090;6.074;2023-02-23T01:33:11;106.45;;;56.55;;
53108;SDS011;39007;53.090;6.074;2023-02-23T01:35:38;116.35;;;55.50;;
53108;SDS011;39007;53.090;6.074;2023-02-23T01:38:04;114.57;;;57.33;;
53108;SDS011;39007;53.090;6.074;2023-02-23T01:40:30;111.03;;;55.85;;
53108;SDS011;39007;53.090;6.074;2023-02-23T01:43:13;116.07;;;55.70;;
53108;SDS011;39007;53.090;6.074;2023-02-23T01:45:42;119.90;;;56.08;;
53108;SDS011;39007;53.090;6.074;2023-02-23T01:53:08;128.18;;;58.53;;
53108;SDS011;39007;53.090;6.074;2023-02-23T01:55:34;121.70;;;55.95;;
53108;SDS011;39007;53.090;6.074;2023-02-23T01:58:03;124.65;;;57.47;;
53108;SDS011;39007;53.090;6.074;2023-02-23T02:00:30;115.65;;;54.58;;
53108;SDS011;39007;53.090;6.074;2023-02-23T02:03:00;130.38;;;57.15;;
53108;SDS011;39007;53.090;6.074;2023-02-23T02:05:27;119.82;;;56.03;;
53108;SDS011;39007;53.090;6.074;2023-02-23T02:07:53;132.70;;;59.40;;
53108;SDS011;39007;53.090;6.074;2023-02-23T02:10:26;121.43;;;57.47;;
53108;SDS011;39007;53.090;6.074;2023-02-23T02:13:04;107.30;;;54.17;;
53108;SDS011;39007;53.090;6.074;2023-02-23T02:15:32;104.32;;;53.03;;
53108;SDS011;39007;53.090;6.074;2023-02-23T02:42:07;114.45;;;52.97;;
53108;SDS011;39007;53.090;6.074;2023-02-23T02:47:07;121.35;;;55.92;;
53108;SDS011;39007;53.090;6.074;2023-02-23T02:49:38;117.32;;;53.72;;
53108;SDS011;39007;53.090;6.074;2023-02-23T02:54:37;108.90;;;52.83;;
53108;SDS011;39007;53.090;6.074;2023-02-23T02:57:04;102.18;;;51.22;;
53108;SDS011;39007;53.090;6.074;2023-02-23T02:59:31;114.18;;;53.80;;
53108;SDS011;39007;53.090;6.074;2023-02-23T03:02:25;113.95;;;52.63;;
53108;SDS011;39007;53.090;6.074;2023-02-23T03:05:14;110.65;;;52.35;;
53108;SDS011;39007;53.090;6.074;2023-02-23T03:08:09;100.97;;;50.83;;
53108;SDS011;39007;53.090;6.074;2023-02-23T03:11:04;111.85;;;50.30;;
53108;SDS011;39007;53.090;6.074;2023-02-23T03:16:42;94.05;;;47.13;;
53108;SDS011;39007;53.090;6.074;2023-02-23T03:20:05;95.60;;;47.08;;
53108;SDS011;39007;53.090;6.074;2023-02-23T03:22:52;87.97;;;45.78;;
53108;SDS011;39007;53.090;6.074;2023-02-23T03:26:22;86.07;;;46.17;;
53108;SDS011;39007;53.090;6.074;2023-02-23T03:31:36;80.63;;;42.40;;
53108;SDS011;39007;53.090;6.074;2023-02-23T03:34:32;68.53;;;39.20;;
53108;SDS011;39007;53.090;6.074;2023-02-23T03:37:30;68.03;;;38.83;;
53108;SDS011;39007;53.090;6.074;2023-02-23T03:40:20;68.75;;;36.42;;
53108;SDS011;39007;53.090;6.074;2023-02-23T03:43:12;62.97;;;35.15;;
53108;SDS011;39007;53.090;6.074;2023-02-23T03:45:59;65.10;;;35.80;;
53108;SDS011;39007;53.090;6.074;2023-02-23T03:48:44;61.42;;;35.97;;
53108;SDS011;39007;53.090;6.074;2023-02-23T03:51:30;64.15;;;35.95;;
53108;SDS011;39007;53.090;6.074;2023-02-23T03:57:01;60.35;;;34.80;;
53108;SDS011;39007;53.090;6.074;2023-02-23T03:59:49;55.95;;;33.75;;
53108;SDS011;39007;53.090;6.074;2023-02-23T04:02:37;59.53;;;35.22;;
53108;SDS011;39007;53.090;6.074;2023-02-23T04:05:23;58.65;;;33.33;;
53108;SDS011;39007;53.090;6.074;2023-02-23T04:08:11;59.33;;;34.47;;
53108;SDS011;39007;53.090;6.074;2023-02-23T04:11:06;56.88;;;33.05;;
53108;SDS011;39007;53.090;6.074;2023-02-23T04:13:56;51.15;;;31.98;;
53108;SDS011;39007;53.090;6.074;2023-02-23T04:16:23;54.55;;;32.15;;
53108;SDS011;39007;53.090;6.074;2023-02-23T04:18:49;49.55;;;30.15;;
53108;SDS011;39007;53.090;6.074;2023-02-23T04:21:16;50.88;;;31.40;;
53108;SDS011;39007;53.090;6.074;2023-02-23T04:23:42;50.08;;;31.60;;
53108;SDS011;39007;53.090;6.074;2023-02-23T04:26:08;45.90;;;29.88;;
53108;SDS011;39007;53.090;6.074;2023-02-23T04:28:34;44.90;;;28.88;;
53108;SDS011;39007;53.090;6.074;2023-02-23T04:31:00;46.08;;;28.58;;
53108;SDS011;39007;53.090;6.074;2023-02-23T04:33:26;49.03;;;30.88;;
53108;SDS011;39007;53.090;6.074;2023-02-23T04:35:53;45.28;;;30.02;;
53108;SDS011;39007;53.090;6.074;2023-02-23T04:38:19;48.03;;;30.83;;
53108;SDS011;39007;53.090;6.074;2023-02-23T04:40:45;48.97;;;30.85;;
53108;SDS011;39007;53.090;6.074;2023-02-23T04:43:11;52.97;;;33.20;;
53108;SDS011;39007;53.090;6.074;2023-02-23T04:45:37;52.53;;;33.03;;
53108;SDS011;39007;53.090;6.074;2023-02-23T04:48:04;50.55;;;32.67;;
53108;SDS011;39007;53.090;6.074;2023-02-23T04:50:30;51.95;;;32.10;;
53108;SDS011;39007;53.090;6.074;2023-02-23T04:52:56;54.97;;;33.05;;
53108;SDS011;39007;53.090;6.074;2023-02-23T04:55:23;62.10;;;36.05;;
53108;SDS011;39007;53.090;6.074;2023-02-23T04:57:50;55.50;;;34.17;;
53108;SDS011;39007;53.090;6.074;2023-02-23T05:00:16;58.08;;;34.72;;
53108;SDS011;39007;53.090;6.074;2023-02-23T05:02:43;57.65;;;35.28;;
53108;SDS011;39007;53.090;6.074;2023-02-23T05:05:09;57.45;;;35.55;;
53108;SDS011;39007;53.090;6.074;2023-02-23T05:07:36;54.80;;;35.33;;
53108;SDS011;39007;53.090;6.074;2023-02-23T05:10:03;58.78;;;34.60;;
53108;SDS011;39007;53.090;6.074;2023-02-23T05:12:29;55.85;;;35.38;;
53108;SDS011;39007;53.090;6.074;2023-02-23T05:14:56;57.53;;;35.58;;
53108;SDS011;39007;53.090;6.074;2023-02-23T05:17:23;59.33;;;36.40;;
53108;SDS011;39007;53.090;6.074;2023-02-23T05:19:49;62.35;;;36.42;;
53108;SDS011;39007;53.090;6.074;2023-02-23T05:22:16;60.80;;;36.92;;
53108;SDS011;39007;53.090;6.074;2023-02-23T05:24:42;61.80;;;38.00;;
53108;SDS011;39007;53.090;6.074;2023-02-23T05:27:09;64.65;;;38.85;;
53108;SDS011;39007;53.090;6.074;2023-02-23T05:29:35;61.90;;;38.22;;
53108;SDS011;39007;53.090;6.074;2023-02-23T05:32:01;61.95;;;37.92;;
53108;SDS011;39007;53.090;6.074;2023-02-23T05:34:27;61.38;;;37.58;;
53108;SDS011;39007;53.090;6.074;2023-02-23T05:36:53;63.83;;;39.20;;
53108;SDS011;39007;53.090;6.074;2023-02-23T05:39:20;65.95;;;38.53;;
53108;SDS011;39007;53.090;6.074;2023-02-23T05:41:46;66.20;;;39.42;;
53108;SDS011;39007;53.090;6.074;2023-02-23T05:44:12;60.05;;;38.05;;
53108;SDS011;39007;53.090;6.074;2023-02-23T05:46:38;70.90;;;40.08;;
53108;SDS011;39007;53.090;6.074;2023-02-23T05:49:04;68.45;;;39.90;;
53108;SDS011;39007;53.090;6.074;2023-02-23T05:51:31;68.05;;;38.80;;
53108;SDS011;39007;53.090;6.074;2023-02-23T05:53:57;71.55;;;41.63;;
53108;SDS011;39007;53.090;6.074;2023-02-23T05:56:24;68.68;;;41.38;;
53108;SDS011;39007;53.090;6.074;2023-02-23T05:58:51;72.60;;;41.65;;
53108;SDS011;39007;53.090;6.074;2023-02-23T06:01:17;66.57;;;40.17;;
53108;SDS011;39007;53.090;6.074;2023-02-23T06:03:44;65.25;;;40.22;;
53108;SDS011;39007;53.090;6.074;2023-02-23T06:06:10;70.90;;;40.33;;
53108;SDS011;39007;53.090;6.074;2023-02-23T06:08:36;67.18;;;40.08;;
53108;SDS011;39007;53.090;6.074;2023-02-23T06:11:02;74.43;;;41.53;;
53108;SDS011;39007;53.090;6.074;2023-02-23T06:13:29;74.38;;;41.00;;
53108;SDS011;39007;53.090;6.074;2023-02-23T06:15:56;61.40;;;38.38;;
53108;SDS011;39007;53.090;6.074;2023-02-23T06:18:23;68.50;;;40.03;;
53108;SDS011;39007;53.090;6.074;2023-02-23T06:20:49;67.90;;;39.65;;
53108;SDS011;39007;53.090;6.074;2023-02-23T06:23:15;75.45;;;42.60;;
53108;SDS011;39007;53.090;6.074;2023-02-23T06:25:42;66.53;;;39.58;;
53108;SDS011;39007;53.090;6.074;2023-02-23T06:28:08;67.97;;;39.80;;
53108;SDS011;39007;53.090;6.074;2023-02-23T06:30:35;66.45;;;40.70;;
53108;SDS011;39007;53.090;6.074;2023-02-23T06:33:02;68.93;;;40.67;;
53108;SDS011;39007;53.090;6.074;2023-02-23T06:35:28;72.95;;;41.75;;
53108;SDS011;39007;53.090;6.074;2023-02-23T06:37:55;71.43;;;42.13;;
53108;SDS011;39007;53.090;6.074;2023-02-23T06:40:21;79.82;;;44.15;;
53108;SDS011;39007;53.090;6.074;2023-02-23T06:42:47;71.07;;;41.35;;
53108;SDS011;39007;53.090;6.074;2023-02-23T06:45:13;73.82;;;43.00;;
53108;SDS011;39007;53.090;6.074;2023-02-23T06:47:39;72.43;;;42.20;;
53108;SDS011;39007;53.090;6.074;2023-02-23T06:50:08;71.97;;;42.15;;
53108;SDS011;39007;53.090;6.074;2023-02-23T06:52:34;68.55;;;41.00;;
53108;SDS011;39007;53.090;6.074;2023-02-23T06:55:01;76.05;;;42.58;;
53108;SDS011;39007;53.090;6.074;2023-02-23T06:57:27;75.68;;;42.08;;
53108;SDS011;39007;53.090;6.074;2023-02-23T06:59:53;74.05;;;43.22;;
53108;SDS011;39007;53.090;6.074;2023-02-23T07:02:19;78.38;;;43.03;;
53108;SDS011;39007;53.090;6.074;2023-02-23T07:04:45;76.85;;;43.70;;
53108;SDS011;39007;53.090;6.074;2023-02-23T07:07:11;65.38;;;41.33;;
53108;SDS011;39007;53.090;6.074;2023-02-23T07:09:40;74.78;;;42.08;;
53108;SDS011;39007;53.090;6.074;2023-02-23T07:12:07;76.85;;;43.42;;
53108;SDS011;39007;53.090;6.074;2023-02-23T07:14:33;73.20;;;41.08;;
53108;SDS011;39007;53.090;6.074;2023-02-23T07:16:59;66.75;;;40.22;;
53108;SDS011;39007;53.090;6.074;2023-02-23T07:19:25;76.55;;;42.00;;
53108;SDS011;39007;53.090;6.074;2023-02-23T07:21:51;71.35;;;41.47;;
53108;SDS011;39007;53.090;6.074;2023-02-23T07:24:18;74.10;;;41.33;;
53108;SDS011;39007;53.090;6.074;2023-02-23T07:26:44;71.60;;;42.78;;
53108;SDS011;39007;53.090;6.074;2023-02-23T07:29:11;71.97;;;41.80;;
53108;SDS011;39007;53.090;6.074;2023-02-23T07:31:37;69.78;;;41.70;;
53108;SDS011;39007;53.090;6.074;2023-02-23T07:34:03;73.05;;;41.90;;
53108;SDS011;39007;53.090;6.074;2023-02-23T07:36:29;72.80;;;41.00;;
53108;SDS011;39007;53.090;6.074;2023-02-23T07:38:55;68.60;;;40.97;;
53108;SDS011;39007;53.090;6.074;2023-02-23T07:41:21;69.68;;;40.17;;
53108;SDS011;39007;53.090;6.074;2023-02-23T07:43:48;65.70;;;38.50;;
53108;SDS011;39007;53.090;6.074;2023-02-23T07:46:14;65.50;;;39.75;;
53108;SDS011;39007;53.090;6.074;2023-02-23T07:48:41;65.88;;;38.45;;
53108;SDS011;39007;53.090;6.074;2023-02-23T07:51:11;65.82;;;38.35;;
53108;SDS011;39007;53.090;6.074;2023-02-23T07:53:38;72.85;;;38.67;;
53108;SDS011;39007;53.090;6.074;2023-02-23T07:56:05;64.78;;;38.53;;
53108;SDS011;39007;53.090;6.074;2023-02-23T07:58:32;63.35;;;37.83;;
53108;SDS011;39007;53.090;6.074;2023-02-23T08:00:58;68.47;;;38.42;;
53108;SDS011;39007;53.090;6.074;2023-02-23T08:03:24;59.55;;;37.13;;
53108;SDS011;39007;53.090;6.074;2023-02-23T08:05:51;62.72;;;37.20;;
53108;SDS011;39007;53.090;6.074;2023-02-23T08:08:17;57.40;;;34.97;;
53108;SDS011;39007;53.090;6.074;2023-02-23T08:10:44;60.70;;;35.53;;
53108;SDS011;39007;53.090;6.074;2023-02-23T08:13:10;56.97;;;36.25;;
53108;SDS011;39007;53.090;6.074;2023-02-23T08:15:36;58.22;;;36.22;;
53108;SDS011;39007;53.090;6.074;2023-02-23T08:18:02;61.05;;;36.33;;
53108;SDS011;39007;53.090;6.074;2023-02-23T08:20:29;61.75;;;35.38;;
53108;SDS011;39007;53.090;6.074;2023-02-23T08:22:55;58.15;;;35.28;;
53108;SDS011;39007;53.090;6.074;2023-02-23T08:25:22;60.60;;;36.70;;
53108;SDS011;39007;53.090;6.074;2023-02-23T08:27:49;62.25;;;35.05;;
53108;SDS011;39007;53.090;6.074;2023-02-23T08:30:19;61.05;;;35.05;;
53108;SDS011;39007;53.090;6.074;2023-02-23T08:32:46;54.70;;;33.30;;
53108;SDS011;39007;53.090;6.074;2023-02-23T08:35:12;57.78;;;34.90;;
53108;SDS011;39007;53.090;6.074;2023-02-23T08:37:39;56.53;;;34.65;;
53108;SDS011;39007;53.090;6.074;2023-02-23T08:40:06;57.17;;;34.78;;
53108;SDS011;39007;53.090;6.074;2023-02-23T08:42:32;58.72;;;34.55;;
53108;SDS011;39007;53.090;6.074;2023-02-23T08:44:58;55.17;;;33.50;;
53108;SDS011;39007;53.090;6.074;2023-02-23T08:47:25;53.97;;;34.60;;
53108;SDS011;39007;53.090;6.074;2023-02-23T08:49:52;55.42;;;33.83;;
53108;SDS011;39007;53.090;6.074;2023-02-23T08:52:18;53.63;;;32.75;;
53108;SDS011;39007;53.090;6.074;2023-02-23T08:54:44;54.03;;;33.28;;
53108;SDS011;39007;53.090;6.074;2023-02-23T08:57:11;51.45;;;31.92;;
53108;SDS011;39007;53.090;6.074;2023-02-23T08:59:37;54.38;;;32.53;;
53108;SDS011;39007;53.090;6.074;2023-02-23T09:02:04;50.10;;;31.08;;
53108;SDS011;39007;53.090;6.074;2023-02-23T09:04:31;47.28;;;30.38;;
53108;SDS011;39007;53.090;6.074;2023-02-23T09:06:59;50.55;;;31.00;;
53108;SDS011;39007;53.090;6.074;2023-02-23T09:09:25;50.05;;;29.60;;
53108;SDS011;39007;53.090;6.074;2023-02-23T09:11:52;49.70;;;30.63;;
53108;SDS011;39007;53.090;6.074;2023-02-23T09:14:19;52.78;;;35.05;;
53108;SDS011;39007;53.090;6.074;2023-02-23T09:16:45;50.25;;;30.20;;
53108;SDS011;39007;53.090;6.074;2023-02-23T09:19:11;46.15;;;28.15;;
53108;SDS011;39007;53.090;6.074;2023-02-23T09:21:38;45.45;;;27.85;;
53108;SDS011;39007;53.090;6.074;2023-02-23T09:24:04;43.38;;;27.40;;
53108;SDS011;39007;53.090;6.074;2023-02-23T09:26:30;43.35;;;28.13;;
53108;SDS011;39007;53.090;6.074;2023-02-23T09:28:57;48.33;;;29.73;;
53108;SDS011;39007;53.090;6.074;2023-02-23T09:31:24;44.10;;;27.80;;
53108;SDS011;39007;53.090;6.074;2023-02-23T09:33:50;53.30;;;29.10;;
53108;SDS011;39007;53.090;6.074;2023-02-23T09:36:18;47.00;;;29.00;;
53108;SDS011;39007;53.090;6.074;2023-02-23T09:38:45;45.67;;;28.42;;
53108;SDS011;39007;53.090;6.074;2023-02-23T09:48:58;51.70;;;28.70;;
53108;SDS011;39007;53.090;6.074;2023-02-23T09:51:25;44.58;;;26.58;;
53108;SDS011;39007;53.090;6.074;2023-02-23T09:53:54;48.03;;;26.08;;
53108;SDS011;39007;53.090;6.074;2023-02-23T09:58:47;48.72;;;27.55;;
53108;SDS011;39007;53.090;6.074;2023-02-23T10:03:54;48.17;;;26.08;;
53108;SDS011;39007;53.090;6.074;2023-02-23T10:06:22;46.20;;;27.52;;
53108;SDS011;39007;53.090;6.074;2023-02-23T10:08:58;55.88;;;28.38;;
53108;SDS011;39007;53.090;6.074;2023-02-23T10:11:43;47.75;;;27.38;;
53108;SDS011;39007;53.090;6.074;2023-02-23T10:14:33;51.85;;;28.20;;
53108;SDS011;39007;53.090;6.074;2023-02-23T10:22:20;47.25;;;27.02;;
53108;SDS011;39007;53.090;6.074;2023-02-23T10:25:05;53.35;;;29.17;;
53108;SDS011;39007;53.090;6.074;2023-02-23T10:27:39;50.67;;;30.55;;
53108;SDS011;39007;53.090;6.074;2023-02-23T10:30:22;55.55;;;28.20;;
53108;SDS011;39007;53.090;6.074;2023-02-23T10:32:59;73.53;;;41.22;;
53108;SDS011;39007;53.090;6.074;2023-02-23T10:35:27;68.60;;;33.60;;
53108;SDS011;39007;53.090;6.074;2023-02-23T10:37:54;58.90;;;31.73;;
53108;SDS011;39007;53.090;6.074;2023-02-23T10:40:22;60.20;;;31.90;;
53108;SDS011;39007;53.090;6.074;2023-02-23T10:42:51;61.25;;;33.53;;
53108;SDS011;39007;53.090;6.074;2023-02-23T10:45:19;66.20;;;34.85;;
53108;SDS011;39007;53.090;6.074;2023-02-23T10:47:59;65.60;;;34.13;;
53108;SDS011;39007;53.090;6.074;2023-02-23T10:50:27;64.13;;;32.03;;
53108;SDS011;39007;53.090;6.074;2023-02-23T10:52:56;59.47;;;31.55;;
53108;SDS011;39007;53.090;6.074;2023-02-23T10:55:24;62.97;;;33.53;;
53108;SDS011;39007;53.090;6.074;2023-02-23T10:57:59;72.35;;;35.58;;
53108;SDS011;39007;53.090;6.074;2023-02-23T11:00:27;67.07;;;34.63;;
53108;SDS011;39007;53.090;6.074;2023-02-23T11:02:57;79.10;;;36.22;;
53108;SDS011;39007;53.090;6.074;2023-02-23T11:08:07;75.70;;;35.72;;
53108;SDS011;39007;53.090;6.074;2023-02-23T11:10:33;78.88;;;35.00;;
53108;SDS011;39007;53.090;6.074;2023-02-23T11:12:59;89.45;;;35.10;;
53108;SDS011;39007;53.090;6.074;2023-02-23T11:15:32;80.47;;;35.45;;
53108;SDS011;39007;53.090;6.074;2023-02-23T11:18:00;86.15;;;36.53;;
53108;SDS011;39007;53.090;6.074;2023-02-23T11:26:03;96.32;;;38.22;;
53108;SDS011;39007;53.090;6.074;2023-02-23T11:28:31;93.65;;;38.50;;
53108;SDS011;39007;53.090;6.074;2023-02-23T11:30:59;91.15;;;37.15;;
53108;SDS011;39007;53.090;6.074;2023-02-23T11:33:27;94.05;;;38.67;;
53108;SDS011;39007;53.090;6.074;2023-02-23T11:35:56;100.68;;;38.95;;
53108;SDS011;39007;53.090;6.074;2023-02-23T11:38:24;103.45;;;40.75;;
53108;SDS011;39007;53.090;6.074;2023-02-23T11:41:01;100.35;;;40.90;;
53108;SDS011;39007;53.090;6.074;2023-02-23T11:43:27;96.90;;;38.22;;
53108;SDS011;39007;53.090;6.074;2023-02-23T11:45:54;104.57;;;40.10;;
53108;SDS011;39007;53.090;6.074;2023-02-23T11:48:43;101.38;;;40.25;;
53108;SDS011;39007;53.090;6.074;2023-02-23T11:51:21;106.82;;;42.17;;
53108;SDS011;39007;53.090;6.074;2023-02-23T11:53:47;97.03;;;38.28;;
53108;SDS011;39007;53.090;6.074;2023-02-23T11:56:13;93.88;;;38.47;;
53108;SDS011;39007;53.090;6.074;2023-02-23T11:58:47;94.82;;;39.60;;
53108;SDS011;39007;53.090;6.074;2023-02-23T12:01:15;98.85;;;39.80;;
53108;SDS011;39007;53.090;6.074;2023-02-23T12:03:52;106.25;;;40.75;;
53108;SDS011;39007;53.090;6.074;2023-02-23T12:06:33;115.25;;;43.55;;
53108;SDS011;39007;53.090;6.074;2023-02-23T12:11:33;116.78;;;43.38;;
53108;SDS011;39007;53.090;6.074;2023-02-23T12:14:48;120.05;;;44.70;;
53108;SDS011;39007;53.090;6.074;2023-02-23T12:16:50;116.10;;;44.80;;
53108;SDS011;39007;53.090;6.074;2023-02-23T12:19:34;111.80;;;41.65;;
53108;SDS011;39007;53.090;6.074;2023-02-23T12:22:17;116.78;;;44.25;;
53108;SDS011;39007;53.090;6.074;2023-02-23T12:24:49;125.10;;;43.45;;
53108;SDS011;39007;53.090;6.074;2023-02-23T12:27:20;119.82;;;45.10;;
53108;SDS011;39007;53.090;6.074;2023-02-23T12:35:00;111.60;;;42.30;;
53108;SDS011;39007;53.090;6.074;2023-02-23T12:40:15;61.83;;;22.00;;
53108;SDS011;39007;53.090;6.074;2023-02-23T12:42:48;37.45;;;12.32;;
53108;SDS011;39007;53.090;6.074;2023-02-23T12:45:21;19.98;;;6.45;;
53108;SDS011;39007;53.090;6.074;2023-02-23T12:47:51;26.85;;;6.63;;
53108;SDS011;39007;53.090;6.074;2023-02-23T12:50:26;20.88;;;5.07;;
53108;SDS011;39007;53.090;6.074;2023-02-23T12:52:55;21.00;;;4.85;;
53108;SDS011;39007;53.090;6.074;2023-02-23T12:55:59;27.38;;;5.63;;
53108;SDS011;39007;53.090;6.074;2023-02-23T13:01:21;41.17;;;7.90;;
53108;SDS011;39007;53.090;6.074;2023-02-23T13:09:05;38.78;;;9.35;;
53108;SDS011;39007;53.090;6.074;2023-02-23T13:16:47;45.78;;;8.77;;
53108;SDS011;39007;53.090;6.074;2023-02-23T13:21:48;48.85;;;8.73;;
53108;SDS011;39007;53.090;6.074;2023-02-23T13:24:22;50.20;;;9.27;;
53108;SDS011;39007;53.090;6.074;2023-02-23T13:31:57;76.50;;;23.95;;
53108;SDS011;39007;53.090;6.074;2023-02-23T13:34:34;58.28;;;12.00;;
53108;SDS011;39007;53.090;6.074;2023-02-23T13:37:02;56.47;;;10.32;;
53108;SDS011;39007;53.090;6.074;2023-02-23T13:52:46;39.70;;;7.95;;
53108;SDS011;39007;53.090;6.074;2023-02-23T13:58:13;44.10;;;9.80;;
53108;SDS011;39007;53.090;6.074;2023-02-23T14:00:39;42.28;;;7.78;;
53108;SDS011;39007;53.090;6.074;2023-02-23T14:03:06;47.03;;;8.15;;
53108;SDS011;39007;53.090;6.074;2023-02-23T14:05:42;54.40;;;8.50;;
53108;SDS011;39007;53.090;6.074;2023-02-23T14:08:17;47.15;;;8.88;;
53108;SDS011;39007;53.090;6.074;2023-02-23T14:10:44;49.55;;;9.23;;
53108;SDS011;39007;53.090;6.074;2023-02-23T14:15:42;46.65;;;8.15;;
53108;SDS011;39007;53.090;6.074;2023-02-23T14:20:46;61.13;;;9.45;;
53108;SDS011;39007;53.090;6.074;2023-02-23T14:30:47;46.38;;;8.82;;
53108;SDS011;39007;53.090;6.074;2023-02-23T14:41:23;43.17;;;8.30;;
53108;SDS011;39007;53.090;6.074;2023-02-23T14:43:52;43.40;;;8.05;;
53108;SDS011;39007;53.090;6.074;2023-02-23T14:46:19;38.97;;;7.25;;
53108;SDS011;39007;53.090;6.074;2023-02-23T14:48:59;37.40;;;7.63;;
53108;SDS011;39007;53.090;6.074;2023-02-23T14:53:52;44.28;;;8.10;;
53108;SDS011;39007;53.090;6.074;2023-02-23T14:56:20;36.75;;;7.40;;
53108;SDS011;39007;53.090;6.074;2023-02-23T14:58:50;41.50;;;7.07;;
53108;SDS011;39007;53.090;6.074;2023-02-23T15:01:32;41.63;;;7.10;;
53108;SDS011;39007;53.090;6.074;2023-02-23T15:04:11;38.13;;;6.70;;
53108;SDS011;39007;53.090;6.074;2023-02-23T15:06:38;32.25;;;6.53;;
53108;SDS011;39007;53.090;6.074;2023-02-23T15:09:12;33.97;;;6.80;;
53108;SDS011;39007;53.090;6.074;2023-02-23T15:11:41;42.92;;;10.57;;
53108;SDS011;39007;53.090;6.074;2023-02-23T15:14:10;40.65;;;7.03;;
53108;SDS011;39007;53.090;6.074;2023-02-23T15:16:39;42.42;;;7.18;;
53108;SDS011;39007;53.090;6.074;2023-02-23T15:19:06;37.45;;;6.90;;
53108;SDS011;39007;53.090;6.074;2023-02-23T15:21:32;38.33;;;7.10;;
53108;SDS011;39007;53.090;6.074;2023-02-23T15:24:05;36.65;;;6.72;;
53108;SDS011;39007;53.090;6.074;2023-02-23T15:26:33;34.60;;;6.75;;
53108;SDS011;39007;53.090;6.074;2023-02-23T15:29:07;34.92;;;6.65;;
53108;SDS011;39007;53.090;6.074;2023-02-23T15:31:37;31.33;;;6.03;;
53108;SDS011;39007;53.090;6.074;2023-02-23T15:34:25;35.97;;;6.38;;
53108;SDS011;39007;53.090;6.074;2023-02-23T15:36:52;32.28;;;7.10;;
53108;SDS011;39007;53.090;6.074;2023-02-23T15:39:21;36.40;;;6.20;;
53108;SDS011;39007;53.090;6.074;2023-02-23T15:41:58;37.88;;;6.30;;
53108;SDS011;39007;53.090;6.074;2023-02-23T15:44:25;29.48;;;5.72;;
53108;SDS011;39007;53.090;6.074;2023-02-23T15:46:56;36.70;;;6.43;;
53108;SDS011;39007;53.090;6.074;2023-02-23T15:49:27;37.13;;;6.13;;
53108;SDS011;39007;53.090;6.074;2023-02-23T15:51:58;36.58;;;6.50;;
53108;SDS011;39007;53.090;6.074;2023-02-23T15:56:54;32.05;;;5.03;;
53108;SDS011;39007;53.090;6.074;2023-02-23T15:59:33;30.70;;;5.63;;
53108;SDS011;39007;53.090;6.074;2023-02-23T16:02:00;26.30;;;4.82;;
53108;SDS011;39007;53.090;6.074;2023-02-23T16:04:37;28.75;;;5.20;;
53108;SDS011;39007;53.090;6.074;2023-02-23T16:07:15;25.60;;;4.82;;
53108;SDS011;39007;53.090;6.074;2023-02-23T16:10:24;25.40;;;5.25;;
53108;SDS011;39007;53.090;6.074;2023-02-23T16:12:33;26.85;;;5.22;;
53108;SDS011;39007;53.090;6.074;2023-02-23T16:15:02;23.45;;;4.72;;
53108;SDS011;39007;53.090;6.074;2023-02-23T16:22:33;27.05;;;4.57;;
53108;SDS011;39007;53.090;6.074;2023-02-23T16:25:01;31.35;;;5.00;;
53108;SDS011;39007;53.090;6.074;2023-02-23T16:27:29;22.13;;;4.22;;
53108;SDS011;39007;53.090;6.074;2023-02-23T16:29:57;26.13;;;5.15;;
53108;SDS011;39007;53.090;6.074;2023-02-23T16:32:24;22.90;;;4.40;;
53108;SDS011;39007;53.090;6.074;2023-02-23T16:35:00;26.58;;;4.65;;
53108;SDS011;39007;53.090;6.074;2023-02-23T16:37:27;25.30;;;5.05;;
53108;SDS011;39007;53.090;6.074;2023-02-23T16:39:53;25.08;;;5.15;;
53108;SDS011;39007;53.090;6.074;2023-02-23T16:44:46;21.70;;;4.53;;
53108;SDS011;39007;53.090;6.074;2023-02-23T16:47:34;24.00;;;4.30;;
53108;SDS011;39007;53.090;6.074;2023-02-23T16:50:00;21.33;;;4.95;;
53108;SDS011;39007;53.090;6.074;2023-02-23T16:52:26;22.15;;;3.72;;
53108;SDS011;39007;53.090;6.074;2023-02-23T16:54:52;61.28;;;25.60;;
53108;SDS011;39007;53.090;6.074;2023-02-23T16:57:20;22.83;;;5.35;;
53108;SDS011;39007;53.090;6.074;2023-02-23T16:59:49;26.90;;;4.78;;
53108;SDS011;39007;53.090;6.074;2023-02-23T17:02:16;28.40;;;4.38;;
53108;SDS011;39007;53.090;6.074;2023-02-23T17:04:43;24.88;;;4.03;;
53108;SDS011;39007;53.090;6.074;2023-02-23T17:07:13;26.85;;;4.47;;
53108;SDS011;39007;53.090;6.074;2023-02-23T17:09:39;22.25;;;4.05;;
53108;SDS011;39007;53.090;6.074;2023-02-23T17:12:05;19.88;;;4.30;;